Terminal Aerodrome Forecast
Issued by NWS

Home | Current Version | Previous Version | Text Only | Print | Product List | Glossary On
Versions: 1 2 3 4 5 6 7 8 9 10 11 12 13 14 15
000
FTUS45 KLKN 232338
TAFWMC
TAF
KWMC 232338Z 2400/2424 30008G18KT P6SM SKC
     FM240200 02009KT P6SM SKC
      TEMPO 2405/2409 03012G22KT P6SM SKC=

USA.gov is the U.S. government's official web portal to all federal, state and local government web resources and services.